Time;durP1;ratioP1;P1;durP2;ratioP2;P2;SDS_P1;SDS_P2;PMS_P1;PMS_P2;Temp;Humidity;BMP_temperature;BMP_pressure;BME280_temperature;BME280_humidity;BME280_pressure;Samples;Min_cycle;Max_cycle;Signal;HPM_P1;HPM_P2
2023/08/04 00:04:33;;;;;;;;;;;;;;;15.35;100.00;95283.34;10543174;28;1914;-77
2023/08/04 00:09:51;;;;;;;;;;;;;;;15.25;100.00;95286.34;10524180;28;1938;-77
2023/08/04 00:14:55;;;;;;;;;;;;;;;15.26;100.00;95277.88;10524202;28;1839;-77
2023/08/04 00:19:59;;;;;;;;;;;;;;;15.34;100.00;95260.09;10525787;28;2024;-77
2023/08/04 00:25:08;;;;;;;;;;;;;;;15.25;100.00;95259.25;10528631;28;2301;-77
2023/08/04 00:30:11;;;;;;;;;;;;;;;15.31;100.00;95275.03;10531053;28;2331;-77
2023/08/04 00:35:14;;;;;;;;;;;;;;;15.41;100.00;95277.47;10524983;28;1928;-77
2023/08/04 00:40:23;;;;;;;;;;;;;;;15.44;100.00;95273.31;10524636;28;1980;-77
2023/08/04 00:45:36;;;;;;;;;;;;;;;15.31;100.00;95266.13;10521297;28;1906;-77
2023/08/04 00:50:48;;;;;;;;;;;;;;;15.29;100.00;95288.09;10539839;27;1931;-77
2023/08/04 00:55:54;;;;;;;;;;;;;;;15.32;100.00;95292.09;10530197;28;1979;-77
2023/08/04 01:00:58;;;;;;;;;;;;;;;15.27;100.00;95278.69;10512201;28;1885;-77
2023/08/04 01:06:04;;;;;;;;;;;;;;;15.27;100.00;95267.84;10512952;28;1984;-77
2023/08/04 01:11:13;;;;;;;;;;;;;;;15.18;100.00;95257.03;10513647;28;1876;-77
2023/08/04 01:16:17;;;;;;;;;;;;;;;15.17;100.00;95273.59;10506519;28;2294;-78
2023/08/04 01:21:24;;;;;;;;;;;;;;;15.13;100.00;95274.19;10518036;28;2608;-77
2023/08/04 01:26:28;;;;;;;;;;;;;;;15.17;100.00;95289.81;10507359;28;2043;-76
2023/08/04 01:31:34;;;;;;;;;;;;;;;15.25;100.00;95275.50;10526408;28;1861;-76
2023/08/04 01:36:39;;;;;;;;;;;;;;;15.23;100.00;95272.31;10519526;28;2284;-77
2023/08/04 01:41:48;;;;;;;;;;;;;;;15.22;100.00;95268.03;10518750;28;4609;-77
2023/08/04 01:47:02;;;;;;;;;;;;;;;15.14;100.00;95243.34;10516715;28;1922;-75
2023/08/04 01:52:08;;;;;;;;;;;;;;;15.11;100.00;95238.53;10512885;28;1996;-77
2023/08/04 01:57:27;;;;;;;;;;;;;;;15.07;100.00;95218.59;10525602;28;1992;-76
2023/08/04 02:02:33;;;;;;;;;;;;;;;15.00;100.00;95228.31;10502662;28;2092;-76
2023/08/04 02:07:37;;;;;;;;;;;;;;;15.02;100.00;95213.38;10515502;28;1985;-77
2023/08/04 02:12:44;;;;;;;;;;;;;;;14.96;100.00;95220.03;10510704;28;2023;-77
2023/08/04 02:17:51;;;;;;;;;;;;;;;15.01;100.00;95222.56;10515895;28;2412;-77
2023/08/04 02:22:57;;;;;;;;;;;;;;;14.97;100.00;95224.34;10517593;28;2246;-77
2023/08/04 02:28:05;;;;;;;;;;;;;;;14.97;100.00;95232.44;10511573;28;2057;-77
2023/08/04 02:33:09;;;;;;;;;;;;;;;15.00;100.00;95237.22;10515303;28;1909;-76
2023/08/04 02:38:15;;;;;;;;;;;;;;;15.10;100.00;95228.81;10515937;28;1884;-77
2023/08/04 02:43:20;;;;;;;;;;;;;;;15.03;100.00;95206.84;10517303;28;2150;-77
2023/08/04 02:48:23;;;;;;;;;;;;;;;15.02;100.00;95201.75;10516813;28;1987;-77
2023/08/04 02:53:30;;;;;;;;;;;;;;;15.01;100.00;95214.44;10520826;28;2154;-78
2023/08/04 02:58:37;;;;;;;;;;;;;;;14.99;100.00;95235.63;10522565;28;2029;-76
2023/08/04 03:03:49;;;;;;;;;;;;;;;15.08;100.00;95247.28;10533814;28;1887;-78
2023/08/04 03:08:55;;;;;;;;;;;;;;;15.12;100.00;95234.72;10534996;28;1906;-78
2023/08/04 03:14:05;;;;;;;;;;;;;;;15.09;100.00;95251.59;10531358;28;2284;-76
2023/08/04 03:19:16;;;;;;;;;;;;;;;15.13;100.00;95252.53;10533184;28;1940;-76
2023/08/04 03:24:23;;;;;;;;;;;;;;;15.07;100.00;95253.00;10532572;28;2066;-76
2023/08/04 03:29:30;;;;;;;;;;;;;;;14.99;100.00;95251.88;10531052;28;1896;-77
2023/08/04 03:34:34;;;;;;;;;;;;;;;14.92;100.00;95246.13;10511582;28;1942;-77
2023/08/04 03:39:42;;;;;;;;;;;;;;;14.82;100.00;95273.44;10531354;28;1932;-77
2023/08/04 03:44:49;;;;;;;;;;;;;;;14.89;100.00;95271.13;10501164;28;4546;-77
2023/08/04 03:49:54;;;;;;;;;;;;;;;14.89;100.00;95287.34;10530039;28;1896;-76
2023/08/04 03:54:59;;;;;;;;;;;;;;;14.80;100.00;95292.72;10516306;28;1835;-77
2023/08/04 04:00:05;;;;;;;;;;;;;;;14.74;100.00;95299.38;10527823;28;1849;-76
2023/08/04 04:05:10;;;;;;;;;;;;;;;14.76;100.00;95285.53;10505391;28;1961;-77
2023/08/04 04:10:14;;;;;;;;;;;;;;;14.70;100.00;95268.66;10513292;28;2250;-77
2023/08/04 04:15:18;;;;;;;;;;;;;;;14.65;100.00;95265.28;10523853;28;2021;-75
2023/08/04 04:20:21;;;;;;;;;;;;;;;14.49;100.00;95276.47;10523642;28;2015;-75
2023/08/04 04:25:27;;;;;;;;;;;;;;;14.40;100.00;95275.63;10528660;28;1971;-76
2023/08/04 04:30:39;;;;;;;;;;;;;;;14.27;100.00;95290.81;10505764;28;1930;-77
2023/08/04 04:35:44;;;;;;;;;;;;;;;14.14;100.00;95296.28;10500790;28;1951;-77
2023/08/04 04:40:48;;;;;;;;;;;;;;;14.07;100.00;95308.31;10527455;28;4512;-77
2023/08/04 04:45:51;;;;;;;;;;;;;;;14.20;100.00;95311.28;10511864;28;2021;-77
2023/08/04 04:50:55;;;;;;;;;;;;;;;14.15;100.00;95308.69;10527194;28;1916;-77
2023/08/04 04:56:05;;;;;;;;;;;;;;;14.24;100.00;95290.63;10522351;28;1870;-77
2023/08/04 05:01:16;;;;;;;;;;;;;;;14.27;100.00;95287.31;10527344;28;2027;-77
2023/08/04 05:06:21;;;;;;;;;;;;;;;14.41;100.00;95296.13;10504418;28;2658;-77
2023/08/04 05:11:34;;;;;;;;;;;;;;;14.44;100.00;95284.72;10521579;28;2043;-76
2023/08/04 05:16:45;;;;;;;;;;;;;;;14.50;100.00;95282.69;10508921;28;1966;-77
2023/08/04 05:21:53;;;;;;;;;;;;;;;14.52;100.00;95275.88;10528255;28;1962;-78
2023/08/04 05:27:04;;;;;;;;;;;;;;;14.52;100.00;95280.50;10516897;28;1929;-75
2023/08/04 05:32:07;;;;;;;;;;;;;;;14.39;100.00;95282.13;10507183;28;1911;-76
2023/08/04 05:37:14;;;;;;;;;;;;;;;14.54;100.00;95298.00;10522894;28;1885;-76
2023/08/04 05:42:20;;;;;;;;;;;;;;;14.54;100.00;95295.28;10503668;28;4474;-75
2023/08/04 05:47:27;;;;;;;;;;;;;;;14.68;100.00;95300.59;10518589;28;1906;-75
2023/08/04 05:52:33;;;;;;;;;;;;;;;14.74;100.00;95304.78;10527470;28;1904;-76
2023/08/04 05:57:37;;;;;;;;;;;;;;;14.79;100.00;95290.31;10507226;28;1963;-76
2023/08/04 06:02:43;;;;;;;;;;;;;;;14.93;100.00;95282.88;10504521;28;2379;-77
2023/08/04 06:07:48;;;;;;;;;;;;;;;14.96;100.00;95290.41;10517553;28;1973;-75
2023/08/04 06:13:09;;;;;;;;;;;;;;;15.13;100.00;95282.31;10499990;28;1888;-76
2023/08/04 06:18:14;;;;;;;;;;;;;;;15.23;100.00;95288.56;10518941;28;1930;-76
2023/08/04 06:23:17;;;;;;;;;;;;;;;15.36;100.00;95293.06;10528458;28;1496;-76
2023/08/04 06:28:28;;;;;;;;;;;;;;;15.58;100.00;95290.22;10527209;28;1967;-75
2023/08/04 06:33:31;;;;;;;;;;;;;;;15.81;100.00;95284.69;10527893;28;1899;-75
2023/08/04 06:38:37;;;;;;;;;;;;;;;16.09;100.00;95268.91;10527150;28;1607;-77
2023/08/04 06:43:42;;;;;;;;;;;;;;;16.38;100.00;95262.81;10509445;28;4580;-75
2023/08/04 06:48:46;;;;;;;;;;;;;;;16.48;100.00;95273.31;10527302;28;2030;-76
2023/08/04 06:53:49;;;;;;;;;;;;;;;16.47;100.00;95301.53;10527292;28;1548;-77
2023/08/04 06:59:03;;;;;;;;;;;;;;;16.51;100.00;95286.22;10514598;28;2413;-75
2023/08/04 07:04:10;;;;;;;;;;;;;;;16.30;100.00;95293.47;10504006;28;1513;-77
2023/08/04 07:09:16;;;;;;;;;;;;;;;16.46;100.00;95291.81;10503358;28;1909;-77
2023/08/04 07:14:35;;;;;;;;;;;;;;;16.55;100.00;95295.31;10502186;28;1805;-77
2023/08/04 07:19:46;;;;;;;;;;;;;;;16.59;100.00;95293.53;10523277;28;1502;-75
2023/08/04 07:30:25;;;;;;;;;;;;;;;16.56;100.00;95298.84;10524751;28;1910;-77
2023/08/04 07:35:35;;;;;;;;;;;;;;;16.58;100.00;95299.31;10506565;28;1493;-78
2023/08/04 07:40:48;;;;;;;;;;;;;;;16.94;100.00;95285.34;10508934;28;4541;-76
2023/08/04 07:45:55;;;;;;;;;;;;;;;16.97;100.00;95287.38;10535693;28;1918;-76
2023/08/04 07:50:58;;;;;;;;;;;;;;;17.06;100.00;95293.59;10532638;28;1539;-77
2023/08/04 07:56:03;;;;;;;;;;;;;;;16.98;100.00;95302.53;10531707;28;2198;-76
2023/08/04 08:01:21;;;;;;;;;;;;;;;16.89;100.00;95299.88;10537847;28;1469;-77
2023/08/04 08:06:29;;;;;;;;;;;;;;;17.03;100.00;95305.88;10531081;28;1997;-77
2023/08/04 08:11:35;;;;;;;;;;;;;;;17.08;100.00;95306.84;10531400;28;1814;-77
2023/08/04 08:16:45;;;;;;;;;;;;;;;17.62;100.00;95282.56;10514694;28;1912;-75
2023/08/04 08:22:02;;;;;;;;;;;;;;;18.39;100.00;95273.03;10507321;28;1961;-76
2023/08/04 08:27:10;;;;;;;;;;;;;;;18.97;100.00;95257.50;10525609;28;1909;-74
2023/08/04 08:32:15;;;;;;;;;;;;;;;19.45;100.00;95253.16;10525331;28;2013;-75
2023/08/04 08:37:28;;;;;;;;;;;;;;;20.01;100.00;95247.06;10484055;28;1869;-77
2023/08/04 08:42:33;;;;;;;;;;;;;;;19.73;100.00;95253.28;10524820;28;4492;-76
2023/08/04 08:47:38;;;;;;;;;;;;;;;20.22;100.00;95253.91;10512122;28;2009;-78
2023/08/04 08:52:47;;;;;;;;;;;;;;;20.61;100.00;95245.22;10507072;28;2128;-76
2023/08/04 08:57:52;;;;;;;;;;;;;;;20.28;100.00;95248.19;10522948;28;1973;-76
2023/08/04 09:02:55;;;;;;;;;;;;;;;20.58;100.00;95248.66;10517973;28;1940;-75
2023/08/04 09:08:12;;;;;;;;;;;;;;;20.43;100.00;95258.38;10522506;28;1972;-76
2023/08/04 09:13:21;;;;;;;;;;;;;;;20.16;100.00;95238.13;10521855;28;1928;-75
2023/08/04 09:18:25;;;;;;;;;;;;;;;20.18;100.00;95241.31;10519198;28;1909;-75
2023/08/04 09:23:42;;;;;;;;;;;;;;;21.09;100.00;95235.13;10523977;28;1916;-77
2023/08/04 09:28:50;;;;;;;;;;;;;;;21.61;100.00;95234.00;10519513;28;2005;-76
2023/08/04 09:33:53;;;;;;;;;;;;;;;21.92;100.00;95235.84;10526555;28;2056;-76
2023/08/04 09:39:00;;;;;;;;;;;;;;;22.04;100.00;95236.50;10511783;28;1912;-76
2023/08/04 09:44:10;;;;;;;;;;;;;;;22.07;100.00;95224.81;10520108;28;4559;-75
2023/08/04 09:49:14;;;;;;;;;;;;;;;21.90;100.00;95238.94;10517988;28;2421;-77
2023/08/04 09:54:21;;;;;;;;;;;;;;;22.03;100.00;95240.38;10521515;28;2027;-77
2023/08/04 09:59:27;;;;;;;;;;;;;;;22.19;100.00;95234.06;10525784;28;2272;-78
2023/08/04 10:04:38;;;;;;;;;;;;;;;22.08;100.00;95229.16;10521351;28;1888;-74
2023/08/04 10:09:43;;;;;;;;;;;;;;;22.53;100.00;95235.13;10508498;28;1910;-76
2023/08/04 10:15:05;;;;;;;;;;;;;;;22.39;100.00;95224.69;10520696;28;1860;-75
2023/08/04 10:20:11;;;;;;;;;;;;;;;22.02;100.00;95222.38;10495788;28;1951;-75
2023/08/04 10:25:15;;;;;;;;;;;;;;;21.83;100.00;95219.66;10518237;28;1892;-76
2023/08/04 10:30:19;;;;;;;;;;;;;;;21.80;100.00;95226.59;10509340;28;1980;-76
2023/08/04 10:35:27;;;;;;;;;;;;;;;21.86;100.00;95227.91;10521781;28;1981;-76
2023/08/04 10:40:32;;;;;;;;;;;;;;;22.75;100.00;95228.88;10498102;28;4588;-76
2023/08/04 10:45:38;;;;;;;;;;;;;;;22.86;100.00;95251.00;10520838;28;2351;-75
2023/08/04 10:50:41;;;;;;;;;;;;;;;22.98;100.00;95239.88;10496587;28;1996;-75
2023/08/04 10:55:54;;;;;;;;;;;;;;;23.45;99.38;95230.44;10517820;28;1985;-77
2023/08/04 11:06:18;;;;;;;;;;;;;;;22.60;100.00;95284.56;10522289;28;2001;-76
2023/08/04 11:11:26;;;;;;;;;;;;;;;22.78;100.00;95301.34;10519282;28;2043;-76
2023/08/04 11:16:35;;;;;;;;;;;;;;;22.82;100.00;95299.44;10507376;28;2017;-76
2023/08/04 11:21:43;;;;;;;;;;;;;;;22.75;100.00;95286.41;10498072;28;1956;-76
2023/08/04 11:26:57;;;;;;;;;;;;;;;23.54;97.95;95288.56;10523751;28;1966;-76
2023/08/04 11:32:02;;;;;;;;;;;;;;;23.58;96.12;95274.91;10525628;28;1958;-74
2023/08/04 11:37:10;;;;;;;;;;;;;;;24.01;93.57;95257.13;10526106;28;2293;-74
2023/08/04 11:42:16;;;;;;;;;;;;;;;23.71;92.57;95235.94;10527697;28;4532;-75
2023/08/04 11:47:20;;;;;;;;;;;;;;;23.66;93.98;95235.47;10520364;28;1918;-77
2023/08/04 11:52:42;;;;;;;;;;;;;;;24.05;92.38;95219.53;10523315;28;1939;-78
2023/08/04 11:57:49;;;;;;;;;;;;;;;24.23;89.56;95226.00;10522302;28;2168;-76
2023/08/04 12:02:58;;;;;;;;;;;;;;;23.25;96.17;95231.69;10502879;28;2000;-76
2023/08/04 12:08:08;;;;;;;;;;;;;;;23.95;92.56;95237.44;10523651;28;1894;-75
2023/08/04 12:13:16;;;;;;;;;;;;;;;23.36;91.07;95247.16;10515832;28;1966;-77
2023/08/04 12:18:22;;;;;;;;;;;;;;;24.19;86.76;95247.16;10526405;28;2047;-76
2023/08/04 12:23:37;;;;;;;;;;;;;;;24.33;90.58;95241.03;10524328;28;1952;-78
2023/08/04 12:28:42;;;;;;;;;;;;;;;24.04;85.03;95234.41;10517504;28;1988;-76
2023/08/04 12:33:59;;;;;;;;;;;;;;;24.60;82.68;95221.72;10514971;28;2369;-75
2023/08/04 12:39:04;;;;;;;;;;;;;;;25.38;79.84;95216.16;10518572;28;1885;-75
2023/08/04 12:44:07;;;;;;;;;;;;;;;25.06;76.89;95216.69;10522970;28;2122;-75
2023/08/04 12:49:10;;;;;;;;;;;;;;;24.68;75.73;95224.16;10520061;28;1949;-74
2023/08/04 12:54:18;;;;;;;;;;;;;;;24.15;79.73;95220.81;10508124;28;1871;-75
2023/08/04 12:59:22;;;;;;;;;;;;;;;23.95;80.69;95220.97;10525990;28;1875;-75
2023/08/04 13:04:31;;;;;;;;;;;;;;;24.47;82.35;95229.44;10500356;28;2196;-75
2023/08/04 13:09:44;;;;;;;;;;;;;;;24.25;78.92;95229.19;10506615;28;1973;-78
2023/08/04 13:14:51;;;;;;;;;;;;;;;24.17;78.94;95227.50;10522425;28;1919;-77
2023/08/04 13:20:05;;;;;;;;;;;;;;;24.27;76.30;95215.88;10528734;28;1903;-75
2023/08/04 13:25:08;;;;;;;;;;;;;;;23.54;79.37;95211.78;10509061;28;2018;-76
2023/08/04 13:30:23;;;;;;;;;;;;;;;23.50;78.73;95204.63;10525306;28;1957;-76
2023/08/04 13:35:46;;;;;;;;;;;;;;;23.26;84.08;95220.34;10522519;28;1947;-76
2023/08/04 13:40:51;;;;;;;;;;;;;;;22.57;93.73;95220.31;10526240;28;4557;-76
2023/08/04 13:46:03;;;;;;;;;;;;;;;22.55;95.75;95216.38;10523534;28;1946;-74
2023/08/04 13:51:05;;;;;;;;;;;;;;;22.71;94.56;95221.75;10520879;28;1914;-75
2023/08/04 13:56:27;;;;;;;;;;;;;;;23.10;98.53;95225.97;10511501;28;1843;-75
2023/08/04 14:01:36;;;;;;;;;;;;;;;23.12;94.27;95231.88;10519868;28;1849;-77
2023/08/04 14:06:50;;;;;;;;;;;;;;;23.18;95.15;95244.13;10519885;28;1992;-89
2023/08/04 14:12:05;;;;;;;;;;;;;;;23.35;90.13;95247.50;10522904;28;2095;-81
2023/08/04 14:17:09;;;;;;;;;;;;;;;23.07;91.76;95259.59;10509421;28;1833;-81
2023/08/04 14:22:15;;;;;;;;;;;;;;;22.53;91.32;95249.63;10521934;28;1945;-82
2023/08/04 14:27:19;;;;;;;;;;;;;;;21.54;99.25;95240.88;10524213;28;2380;-79
2023/08/04 14:32:33;;;;;;;;;;;;;;;21.26;100.00;95232.81;10502720;28;1896;-79
2023/08/04 14:37:37;;;;;;;;;;;;;;;20.70;100.00;95234.94;10524460;28;1917;-80
2023/08/04 14:42:45;;;;;;;;;;;;;;;20.72;100.00;95224.44;10527693;28;4532;-81
2023/08/04 14:47:57;;;;;;;;;;;;;;;20.55;100.00;95228.31;10524653;28;1985;-81
2023/08/04 14:53:06;;;;;;;;;;;;;;;20.48;100.00;95217.97;10511425;28;2029;-80
2023/08/04 14:58:19;;;;;;;;;;;;;;;20.47;100.00;95216.41;10526834;28;1920;-81
2023/08/04 15:03:26;;;;;;;;;;;;;;;20.46;100.00;95216.75;10523356;28;1996;-79
2023/08/04 15:08:30;;;;;;;;;;;;;;;20.57;100.00;95217.03;10522827;28;1960;-80
2023/08/04 15:13:43;;;;;;;;;;;;;;;20.71;100.00;95207.25;10524532;28;1991;-81
2023/08/04 15:18:47;;;;;;;;;;;;;;;20.36;100.00;95219.94;10506278;28;2024;-80
2023/08/04 15:23:54;;;;;;;;;;;;;;;20.10;100.00;95209.50;10526015;28;2585;-80
2023/08/04 15:28:58;;;;;;;;;;;;;;;20.16;100.00;95213.56;10507416;28;1979;-80
2023/08/04 15:34:02;;;;;;;;;;;;;;;20.16;100.00;95222.53;10526208;28;1888;-80
2023/08/04 15:39:07;;;;;;;;;;;;;;;20.03;100.00;95239.31;10533424;28;1888;-83
2023/08/04 15:44:14;;;;;;;;;;;;;;;19.88;100.00;95222.56;10539143;28;4672;-80
2023/08/04 15:49:21;;;;;;;;;;;;;;;20.01;100.00;95222.50;10525006;28;1936;-81
2023/08/04 15:54:33;;;;;;;;;;;;;;;20.10;100.00;95214.97;10526189;28;1877;-81
2023/08/04 15:59:41;;;;;;;;;;;;;;;20.27;100.00;95217.38;10529338;28;1946;-81
2023/08/04 16:04:49;;;;;;;;;;;;;;;20.39;100.00;95211.06;10521832;28;1904;-81
2023/08/04 16:09:59;;;;;;;;;;;;;;;20.99;100.00;95207.19;10537717;28;1891;-82
2023/08/04 16:15:13;;;;;;;;;;;;;;;21.30;100.00;95211.03;10540168;28;1897;-80
2023/08/04 16:20:18;;;;;;;;;;;;;;;21.81;100.00;95216.44;10506224;28;1886;-81
2023/08/04 16:25:26;;;;;;;;;;;;;;;22.12;100.00;95237.47;10538908;28;1886;-81
2023/08/04 16:30:31;;;;;;;;;;;;;;;22.47;100.00;95225.63;10541053;28;1918;-82
2023/08/04 16:35:34;;;;;;;;;;;;;;;21.63;100.00;95231.69;10532299;28;1874;-80
2023/08/04 16:40:39;;;;;;;;;;;;;;;20.82;100.00;95243.06;10530362;28;4571;-81
2023/08/04 16:45:43;;;;;;;;;;;;;;;20.40;100.00;95253.59;10524551;28;2115;-80
2023/08/04 16:50:47;;;;;;;;;;;;;;;20.25;100.00;95269.59;10524214;28;1910;-80
2023/08/04 16:55:53;;;;;;;;;;;;;;;20.41;100.00;95264.16;10528969;28;1944;-81
2023/08/04 17:00:59;;;;;;;;;;;;;;;20.47;100.00;95270.22;10526036;28;1855;-81
2023/08/04 17:06:04;;;;;;;;;;;;;;;20.22;100.00;95264.03;10528845;28;1862;-81
2023/08/04 17:11:14;;;;;;;;;;;;;;;20.13;100.00;95244.28;10527697;28;1983;-80
2023/08/04 17:16:40;;;;;;;;;;;;;;;20.01;100.00;95236.94;10531688;28;2413;-81
2023/08/04 17:22:06;;;;;;;;;;;;;;;19.80;100.00;95231.69;10539959;27;2076;-83
2023/08/04 17:27:11;;;;;;;;;;;;;;;19.57;100.00;95234.06;10528680;28;1932;-82
2023/08/04 17:32:20;;;;;;;;;;;;;;;19.27;100.00;95247.16;10544607;28;2010;-82
2023/08/04 17:37:31;;;;;;;;;;;;;;;19.38;100.00;95267.38;10531073;28;1883;-81
2023/08/04 17:42:42;;;;;;;;;;;;;;;19.23;100.00;95298.03;10532384;28;1923;-80
2023/08/04 17:47:47;;;;;;;;;;;;;;;18.96;100.00;95285.88;10536107;28;1874;-82
2023/08/04 17:52:53;;;;;;;;;;;;;;;18.84;100.00;95294.81;10529189;28;1977;-83
2023/08/04 17:57:58;;;;;;;;;;;;;;;18.70;100.00;95291.59;10521682;28;1968;-81
2023/08/04 18:03:00;;;;;;;;;;;;;;;18.67;100.00;95288.78;10525232;28;1962;-81
2023/08/04 18:08:20;;;;;;;;;;;;;;;18.53;100.00;95299.94;10518017;28;2111;-81
2023/08/04 18:13:27;;;;;;;;;;;;;;;18.47;100.00;95314.88;10530662;28;2243;-81
2023/08/04 18:18:32;;;;;;;;;;;;;;;18.31;100.00;95320.13;10527163;28;1850;-81
2023/08/04 18:23:34;;;;;;;;;;;;;;;18.19;100.00;95326.31;10517786;28;1857;-82
2023/08/04 18:29:03;;;;;;;;;;;;;;;18.14;100.00;95329.25;10518570;28;1913;-81
2023/08/04 18:34:15;;;;;;;;;;;;;;;18.05;100.00;95339.38;10522617;28;1892;-81
2023/08/04 18:39:19;;;;;;;;;;;;;;;17.94;100.00;95340.91;10524363;28;1925;-82
2023/08/04 18:44:26;;;;;;;;;;;;;;;17.76;100.00;95343.75;10528895;28;2032;-82
2023/08/04 18:49:38;;;;;;;;;;;;;;;17.66;100.00;95349.53;10509464;28;1987;-82
2023/08/04 18:54:45;;;;;;;;;;;;;;;17.62;100.00;95361.38;10510903;28;1924;-82
2023/08/04 18:59:53;;;;;;;;;;;;;;;17.67;100.00;95359.28;10528416;28;1878;-81
2023/08/04 19:04:59;;;;;;;;;;;;;;;17.61;100.00;95359.78;10521515;28;2087;-81
2023/08/04 19:10:04;;;;;;;;;;;;;;;17.58;100.00;95366.69;10522898;28;2162;-81
2023/08/04 19:15:16;;;;;;;;;;;;;;;17.57;100.00;95365.09;10522542;28;1834;-82
2023/08/04 19:20:22;;;;;;;;;;;;;;;17.48;100.00;95364.31;10520598;28;1946;-81
2023/08/04 19:25:25;;;;;;;;;;;;;;;17.40;100.00;95367.91;10522208;28;1912;-81
2023/08/04 19:30:28;;;;;;;;;;;;;;;17.32;100.00;95366.03;10513599;28;2055;-82
2023/08/04 19:35:38;;;;;;;;;;;;;;;17.20;100.00;95364.78;10525090;28;1892;-81
2023/08/04 19:40:43;;;;;;;;;;;;;;;17.20;100.00;95375.63;10527889;28;2059;-81
2023/08/04 19:45:47;;;;;;;;;;;;;;;17.16;100.00;95369.25;10528750;28;1801;-80
2023/08/04 19:50:53;;;;;;;;;;;;;;;17.17;100.00;95365.41;10523917;28;1906;-82
2023/08/04 19:56:05;;;;;;;;;;;;;;;17.14;100.00;95360.66;10529237;28;1830;-82
2023/08/04 20:01:17;;;;;;;;;;;;;;;17.07;100.00;95357.63;10532525;28;1913;-82
2023/08/04 20:06:23;;;;;;;;;;;;;;;16.90;100.00;95366.63;10526598;28;1943;-82
2023/08/04 20:11:35;;;;;;;;;;;;;;;16.81;100.00;95376.72;10533037;28;1969;-81
2023/08/04 20:16:40;;;;;;;;;;;;;;;16.79;100.00;95370.00;10530949;28;1942;-81
2023/08/04 20:21:44;;;;;;;;;;;;;;;16.72;100.00;95367.78;10526742;28;1852;-80
2023/08/04 20:26:59;;;;;;;;;;;;;;;16.68;100.00;95374.94;10538167;28;2015;-81
2023/08/04 20:32:02;;;;;;;;;;;;;;;16.69;100.00;95382.75;10536791;28;1972;-81
2023/08/04 20:37:11;;;;;;;;;;;;;;;16.64;100.00;95401.91;10541135;28;2030;-81
2023/08/04 20:42:17;;;;;;;;;;;;;;;16.55;100.00;95398.44;10511180;28;2148;-81
2023/08/04 20:47:21;;;;;;;;;;;;;;;16.56;100.00;95408.16;10521396;28;1929;-81
2023/08/04 20:52:25;;;;;;;;;;;;;;;16.55;100.00;95417.44;10525621;28;1971;-80
2023/08/04 20:57:28;;;;;;;;;;;;;;;16.54;100.00;95431.28;10523353;28;1872;-82
2023/08/04 21:02:31;;;;;;;;;;;;;;;16.59;100.00;95418.38;10526283;28;2253;-81
2023/08/04 21:07:42;;;;;;;;;;;;;;;16.61;100.00;95418.84;10526475;28;2059;-80
2023/08/04 21:12:48;;;;;;;;;;;;;;;16.56;100.00;95418.22;10509756;28;1956;-81
2023/08/04 21:18:00;;;;;;;;;;;;;;;16.48;100.00;95420.63;10522818;28;1952;-81
2023/08/04 21:23:04;;;;;;;;;;;;;;;16.45;100.00;95412.31;10525825;28;1924;-82
2023/08/04 21:28:07;;;;;;;;;;;;;;;16.44;100.00;95416.16;10507356;28;1944;-81
2023/08/04 21:33:10;;;;;;;;;;;;;;;16.44;100.00;95419.66;10523973;28;1983;-80
2023/08/04 21:38:15;;;;;;;;;;;;;;;16.34;100.00;95406.41;10515860;28;1984;-81
2023/08/04 21:43:31;;;;;;;;;;;;;;;16.34;100.00;95400.16;10520280;28;2016;-81
2023/08/04 21:48:42;;;;;;;;;;;;;;;16.35;100.00;95399.06;10526631;28;1966;-82
2023/08/04 21:53:49;;;;;;;;;;;;;;;16.33;100.00;95401.28;10531848;28;2044;-80
2023/08/04 21:58:53;;;;;;;;;;;;;;;16.21;100.00;95416.28;10525006;28;2377;-81
2023/08/04 22:03:58;;;;;;;;;;;;;;;16.15;100.00;95427.59;10524841;28;1841;-82
2023/08/04 22:09:03;;;;;;;;;;;;;;;16.18;100.00;95437.81;10515694;28;2076;-81
2023/08/04 22:14:10;;;;;;;;;;;;;;;16.07;100.00;95442.75;10525464;28;1924;-80
2023/08/04 22:19:25;;;;;;;;;;;;;;;16.00;100.00;95453.25;10520760;28;1918;-80
2023/08/04 22:24:30;;;;;;;;;;;;;;;16.02;100.00;95442.88;10519795;28;2095;-80
2023/08/04 22:29:33;;;;;;;;;;;;;;;16.00;100.00;95442.41;10519391;28;1906;-80
2023/08/04 22:34:37;;;;;;;;;;;;;;;15.89;100.00;95447.31;10509573;28;2072;-81
2023/08/04 22:39:43;;;;;;;;;;;;;;;15.78;100.00;95450.66;10526717;28;1971;-81
2023/08/04 22:44:53;;;;;;;;;;;;;;;15.83;100.00;95453.19;10505866;28;4565;-81
2023/08/04 22:50:00;;;;;;;;;;;;;;;15.78;100.00;95461.50;10522841;28;2111;-81
2023/08/04 22:55:06;;;;;;;;;;;;;;;15.80;100.00;95437.59;10488010;28;2509;-81
2023/08/04 23:00:12;;;;;;;;;;;;;;;15.78;100.00;95426.28;10530264;28;2277;-80
2023/08/04 23:05:19;;;;;;;;;;;;;;;15.73;100.00;95421.00;10516315;28;1996;-80
2023/08/04 23:10:23;;;;;;;;;;;;;;;15.65;100.00;95419.84;10526026;28;1991;-80
2023/08/04 23:15:27;;;;;;;;;;;;;;;15.61;100.00;95426.97;10524871;28;2003;-81
2023/08/04 23:20:33;;;;;;;;;;;;;;;15.53;100.00;95415.00;10530370;28;1861;-80
2023/08/04 23:25:37;;;;;;;;;;;;;;;15.56;100.00;95400.81;10542372;28;1852;-80
2023/08/04 23:30:43;;;;;;;;;;;;;;;15.60;100.00;95401.00;10527267;28;1996;-81
2023/08/04 23:35:47;;;;;;;;;;;;;;;15.47;100.00;95400.00;10516746;28;2218;-81
2023/08/04 23:40:53;;;;;;;;;;;;;;;15.33;100.00;95383.88;10526375;28;4565;-81
2023/08/04 23:45:59;;;;;;;;;;;;;;;15.27;100.00;95384.28;10533525;28;1857;-81
2023/08/04 23:51:07;;;;;;;;;;;;;;;15.23;100.00;95392.25;10533304;28;2338;-81
2023/08/04 23:56:11;;;;;;;;;;;;;;;15.20;100.00;95394.78;10526608;28;1905;-82
